Station History

Weather Underground - logo

Station Historical Data
Daily Summary for November 4, 2017 Units:  Metric    English   Both
« Previous Day
Next Day »
Daily Weekly Monthly Yearly Custom
  High: Low: Average:
Temperature: 22.1 °C 11.7 °C 16.6 °C
Dew Point: 12.6 °C 8.9 °C 10.6 °C
Humidity: 87 % 48 % 69 %
Wind Speed: 5.6 km/h 0 km/h 1 km/h
Wind Gust: 5.6 km/h - -
Wind:- - West
Pressure: 1017.2 hPa 1013.8 hPa -
Precipitation: 0 mm    
Historical Graphs
 
 
Tabular Data for November 4, 2017
Time Temperature Dew Point Pressure Wind Wind Speed Wind Gust Humidity Rainfall Rate (Hourly)
00:02 14.3 °C 10.2 °C 1016.1 hPa Calm     76 % 0 mm
00:07 14.4 °C 9.8 °C 1016.1 hPa West 1.9 km/h 1.9 km/h 74 % 0 mm
00:12 14.4 °C 9.8 °C 1016.1 hPa WNW 1.9 km/h   74 % 0 mm
00:17 14.4 °C 9.6 °C 1016.1 hPa Calm     73 % 0 mm
00:22 14.4 °C 9.6 °C 1016.1 hPa Calm     73 % 0 mm
00:27 14.6 °C 9.3 °C 1016.5 hPa Calm     71 % 0 mm
00:32 14.7 °C 9.3 °C 1016.5 hPa NNW 3.7 km/h 3.7 km/h 70 % 0 mm
00:37 14.8 °C 9.3 °C 1016.5 hPa WNW 1.9 km/h 1.9 km/h 70 % 0 mm
00:42 14.9 °C 9.2 °C 1016.5 hPa NNW 1.9 km/h 1.9 km/h 69 % 0 mm
00:47 14.9 °C 9.3 °C 1016.5 hPa NW 1.9 km/h 1.9 km/h 69 % 0 mm
00:52 14.9 °C 9.1 °C 1016.5 hPa Calm     68 % 0 mm
00:57 14.9 °C 9.2 °C 1016.5 hPa Calm     69 % 0 mm
01:02 14.8 °C 9.2 °C 1016.5 hPa Calm     69 % 0 mm
01:07 14.8 °C 9.2 °C 1016.5 hPa WNW 1.9 km/h   69 % 0 mm
01:12 14.8 °C 9.2 °C 1016.5 hPa Calm     69 % 0 mm
01:17 14.7 °C 9.3 °C 1016.5 hPa Calm     70 % 0 mm
01:22 14.7 °C 9.1 °C 1016.5 hPa Calm     69 % 0 mm
01:27 14.6 °C 9.2 °C 1016.5 hPa Calm     70 % 0 mm
01:32 14.4 °C 9.4 °C 1016.5 hPa Calm     72 % 0 mm
01:37 14.2 °C 9.8 °C 1016.5 hPa Calm     75 % 0 mm
01:42 13.7 °C 9.6 °C 1016.5 hPa Calm     76 % 0 mm
01:48 13.4 °C 9.5 °C 1016.5 hPa Calm     77 % 0 mm
01:53 13.2 °C 9.4 °C 1016.5 hPa Calm     78 % 0 mm
01:58 12.9 °C 9.4 °C 1016.5 hPa Calm     79 % 0 mm
02:03 12.8 °C 9.4 °C 1016.5 hPa Calm     80 % 0 mm
02:08 12.6 °C 9.4 °C 1016.5 hPa Calm     81 % 0 mm
02:13 12.5 °C 9.5 °C 1016.5 hPa Calm     82 % 0 mm
02:18 12.4 °C 9.3 °C 1016.5 hPa Calm     81 % 0 mm
02:23 12.4 °C 9.4 °C 1016.5 hPa Calm     82 % 0 mm
02:28 12.5 °C 9.3 °C 1016.5 hPa Calm     81 % 0 mm
02:33 12.6 °C 9.4 °C 1016.5 hPa Calm     81 % 0 mm
02:38 12.6 °C 9.4 °C 1016.1 hPa Calm     81 % 0 mm
02:43 12.7 °C 9.5 °C 1016.1 hPa Calm     81 % 0 mm
02:48 12.8 °C 9.4 °C 1016.1 hPa Calm     80 % 0 mm
02:53 12.8 °C 9.6 °C 1016.1 hPa Calm     81 % 0 mm
02:58 12.8 °C 9.7 °C 1016.1 hPa Calm     81 % 0 mm
03:03 12.8 °C 9.6 °C 1016.1 hPa Calm     81 % 0 mm
03:08 12.8 °C 9.8 °C 1016.1 hPa Calm     82 % 0 mm
03:13 12.8 °C 10 °C 1016.1 hPa Calm     83 % 0 mm
03:18 12.8 °C 9.9 °C 1016.1 hPa Calm     83 % 0 mm
03:23 12.8 °C 9.4 °C 1016.1 hPa Calm     80 % 0 mm
03:28 12.8 °C 9.7 °C 1015.8 hPa Calm     81 % 0 mm
03:33 12.8 °C 9.8 °C 1016.1 hPa Calm     82 % 0 mm
03:38 12.6 °C 9.7 °C 1016.1 hPa Calm     83 % 0 mm
03:43 12.4 °C 9.6 °C 1016.1 hPa Calm     83 % 0 mm
03:53 12.2 °C 9.4 °C 1016.1 hPa Calm     83 % 0 mm
03:58 12.2 °C 9.6 °C 1016.1 hPa Calm     84 % 0 mm
04:03 12.2 °C 9.6 °C 1015.8 hPa Calm     84 % 0 mm
04:08 12.2 °C 9.6 °C 1015.8 hPa Calm     84 % 0 mm
04:14 12.4 °C 9.8 °C 1016.1 hPa Calm     84 % 0 mm
04:19 12.5 °C 9.9 °C 1015.8 hPa Calm     84 % 0 mm
04:24 12.5 °C 9.7 °C 1015.8 hPa Calm     83 % 0 mm
04:29 12.6 °C 9.7 °C 1016.1 hPa Calm     83 % 0 mm
04:34 12.6 °C 9.7 °C 1016.1 hPa Calm     83 % 0 mm
04:39 12.5 °C 9.7 °C 1015.8 hPa Calm     83 % 0 mm
04:44 12.5 °C 9.7 °C 1015.8 hPa Calm     83 % 0 mm
04:49 12.5 °C 9.9 °C 1016.1 hPa Calm     84 % 0 mm
04:54 12.4 °C 9.8 °C 1016.1 hPa Calm     84 % 0 mm
04:59 12.4 °C 9.8 °C 1016.1 hPa Calm     84 % 0 mm
05:04 12.3 °C 10 °C 1016.1 hPa Calm     86 % 0 mm
05:09 12.2 °C 9.9 °C 1016.1 hPa Calm     86 % 0 mm
05:14 12.1 °C 9.8 °C 1016.1 hPa Calm     86 % 0 mm
05:19 12.1 °C 9.8 °C 1016.1 hPa Calm     86 % 0 mm
05:24 12.1 °C 9.8 °C 1016.1 hPa Calm     86 % 0 mm
05:29 12.1 °C 9.9 °C 1016.1 hPa Calm     87 % 0 mm
05:34 12.1 °C 9.9 °C 1016.1 hPa Calm     87 % 0 mm
05:39 12.1 °C 10 °C 1016.5 hPa Calm     87 % 0 mm
05:44 12.2 °C 9.9 °C 1016.5 hPa Calm     86 % 0 mm
05:49 12.2 °C 9.9 °C 1016.1 hPa Calm     86 % 0 mm
05:54 12.3 °C 10 °C 1016.5 hPa Calm     86 % 0 mm
05:59 12.3 °C 9.9 °C 1016.1 hPa Calm     85 % 0 mm
06:04 12.5 °C 9.7 °C 1016.1 hPa Calm     83 % 0 mm
06:09 12.6 °C 9.6 °C 1016.1 hPa Calm     82 % 0 mm
06:14 12.7 °C 9.5 °C 1016.1 hPa Calm     81 % 0 mm
06:19 12.7 °C 9.6 °C 1016.1 hPa Calm     81 % 0 mm
06:24 12.8 °C 9.4 °C 1016.5 hPa Calm     80 % 0 mm
06:29 12.8 °C 9.4 °C 1016.1 hPa Calm     80 % 0 mm
06:34 12.8 °C 9.4 °C 1016.1 hPa Calm     80 % 0 mm
06:35 12.8 °C 9.3 °C 1016.1 hPa Calm     79 % 0 mm
06:40 12.8 °C 9.1 °C 1016.1 hPa Calm     78 % 0 mm
06:45 12.9 °C 9.2 °C 1016.1 hPa NNW 1.9 km/h   78 % 0 mm
06:50 13 °C 9.3 °C 1016.1 hPa Calm     78 % 0 mm
06:55 13 °C 9.3 °C 1016.5 hPa Calm     78 % 0 mm
07:00 12.9 °C 9.4 °C 1016.5 hPa Calm     79 % 0 mm
07:05 12.8 °C 9.4 °C 1016.5 hPa Calm     80 % 0 mm
07:10 12.7 °C 9.5 °C 1016.5 hPa Calm     81 % 0 mm
07:15 12.6 °C 9.6 °C 1016.5 hPa Calm     82 % 0 mm
07:20 12.4 °C 9.4 °C 1016.5 hPa Calm     82 % 0 mm
07:25 12.3 °C 9.3 °C 1016.5 hPa Calm     82 % 0 mm
07:30 12.2 °C 9.1 °C 1016.5 hPa Calm     81 % 0 mm
07:35 12.2 °C 9 °C 1016.5 hPa Calm     81 % 0 mm
07:40 12.1 °C 8.9 °C 1016.8 hPa Calm     81 % 0 mm
07:45 11.9 °C 8.9 °C 1016.8 hPa Calm     82 % 0 mm
07:50 11.8 °C 9 °C 1016.8 hPa Calm     83 % 0 mm
07:55 11.7 °C 9.1 °C 1016.8 hPa Calm     84 % 0 mm
08:00 11.7 °C 8.9 °C 1016.8 hPa Calm     83 % 0 mm
08:05 11.8 °C 9.2 °C 1016.8 hPa Calm     84 % 0 mm
08:10 12 °C 9.4 °C 1017.2 hPa Calm     84 % 0 mm
08:16 12.3 °C 9.3 °C 1016.8 hPa Calm     82 % 0 mm
08:21 12.7 °C 9.3 °C 1016.8 hPa Calm     80 % 0 mm
08:26 13.3 °C 9.5 °C 1016.8 hPa Calm     78 % 0 mm
08:31 13.8 °C 9.7 °C 1016.8 hPa Calm     76 % 0 mm
08:36 14.6 °C 9.8 °C 1016.8 hPa Calm     73 % 0 mm
08:41 15.1 °C 9.7 °C 1017.2 hPa Calm     70 % 0 mm
08:46 15.3 °C 10.1 °C 1017.2 hPa Calm     71 % 0 mm
08:51 15.3 °C 10.1 °C 1017.2 hPa Calm     71 % 0 mm
08:56 15.5 °C 10.3 °C 1017.2 hPa Calm     71 % 0 mm
09:01 15.6 °C 10.4 °C 1017.2 hPa Calm     71 % 0 mm
09:06 15.8 °C 10.4 °C 1017.2 hPa Calm     70 % 0 mm
09:11 15.8 °C 9.9 °C 1017.2 hPa Calm   0.2 km/h 68 % 0 mm
09:16 15.9 °C 10.5 °C 1017.2 hPa Calm     70 % 0 mm
09:21 16.2 °C 10.3 °C 1017.2 hPa NNW 1.9 km/h   68 % 0 mm
09:26 16.5 °C 10.3 °C 1017.2 hPa Calm     67 % 0 mm
09:31 17.1 °C 10.2 °C 1017.2 hPa Calm     64 % 0 mm
09:36 17.7 °C 10.6 °C 1016.8 hPa ESE 1.9 km/h   63 % 0 mm
09:41 18 °C 10.4 °C 1016.8 hPa Calm     61 % 0 mm
09:46 17.9 °C 10.5 °C 1017.2 hPa Calm     62 % 0 mm
09:51 18.1 °C 10.4 °C 1016.8 hPa Calm     61 % 0 mm
09:56 18.2 °C 10.5 °C 1016.8 hPa Calm     61 % 0 mm
10:01 18.6 °C 10.1 °C 1016.8 hPa NE 1.9 km/h   58 % 0 mm
10:06 18.7 °C 10.3 °C 1017.2 hPa Calm     58 % 0 mm
10:11 18.6 °C 9.9 °C 1017.2 hPa East 1.9 km/h   57 % 0 mm
10:16 18.6 °C 10.4 °C 1016.8 hPa Calm     59 % 0 mm
10:21 19.2 °C 10.7 °C 1016.8 hPa SSW 1.9 km/h 1.9 km/h 58 % 0 mm
10:26 19.3 °C 10.3 °C 1017.2 hPa SSE 1.9 km/h 1.9 km/h 56 % 0 mm
10:31 19.1 °C 9.8 °C 1016.8 hPa ESE 1.9 km/h 1.9 km/h 55 % 0 mm
10:36 19.2 °C 10.4 °C 1016.8 hPa East 5.6 km/h 5.6 km/h 57 % 0 mm
10:41 19.5 °C 10.8 °C 1016.8 hPa SSW 1.9 km/h 1.9 km/h 57 % 0 mm
10:46 19.6 °C 10.1 °C 1017.2 hPa East 1.9 km/h 1.9 km/h 54 % 0 mm
10:51 19.6 °C 11.1 °C 1016.8 hPa SE 1.9 km/h 1.9 km/h 58 % 0 mm
10:56 20.2 °C 10.8 °C 1016.8 hPa SE 5.6 km/h 5.6 km/h 55 % 0 mm
11:32 20.6 °C 11 °C 1016.8 hPa NNW 1.9 km/h 1.9 km/h 54 % 0 mm
11:37 20.8 °C 11.2 °C 1016.8 hPa ENE 1.9 km/h 1.9 km/h 54 % 0 mm
11:42 20.8 °C 10.6 °C 1016.8 hPa Calm     52 % 0 mm
11:47 20.7 °C 10.5 °C 1016.8 hPa NW 1.9 km/h   52 % 0 mm
11:52 20.8 °C 10.3 °C 1016.5 hPa East 1.9 km/h 1.9 km/h 51 % 0 mm
11:57 21.1 °C 10.8 °C 1016.5 hPa Calm     52 % 0 mm
12:02 21.3 °C 10.7 °C 1016.5 hPa WSW 1.9 km/h   51 % 0 mm
12:07 21.3 °C 10.5 °C 1016.5 hPa SE 3.2 km/h 3.2 km/h 50 % 0 mm
12:12 21.4 °C 10.6 °C 1016.5 hPa SE 1.9 km/h 1.9 km/h 50 % 0 mm
12:17 21.5 °C 10.6 °C 1016.5 hPa NW 3.2 km/h 3.2 km/h 50 % 0 mm
12:22 21.4 °C 10.2 °C 1016.5 hPa NW 1.9 km/h 1.9 km/h 49 % 0 mm
12:27 21.3 °C 10.7 °C 1016.1 hPa WNW 5.6 km/h 5.6 km/h 51 % 0 mm
12:32 21.2 °C 10.3 °C 1016.1 hPa West 1.9 km/h 1.9 km/h 50 % 0 mm
12:37 21.2 °C 10.9 °C 1016.1 hPa NW 1.9 km/h 1.9 km/h 52 % 0 mm
12:42 21.2 °C 10.9 °C 1015.8 hPa WNW 1.9 km/h 1.9 km/h 52 % 0 mm
12:47 21.3 °C 10.7 °C 1015.8 hPa NW 3.7 km/h 3.7 km/h 51 % 0 mm
12:52 21.1 °C 10.6 °C 1015.8 hPa WNW 3.7 km/h 3.7 km/h 51 % 0 mm
12:57 21.1 °C 10.8 °C 1015.5 hPa ESE 1.9 km/h   52 % 0 mm
13:02 21.4 °C 11.4 °C 1015.5 hPa Calm     53 % 0 mm
13:07 21.5 °C 10.6 °C 1015.5 hPa NW 1.9 km/h   50 % 0 mm
13:12 21.6 °C 10.7 °C 1015.1 hPa West 3.7 km/h 3.7 km/h 50 % 0 mm
13:17 21.9 °C 11.3 °C 1015.1 hPa NW 3.7 km/h 3.7 km/h 51 % 0 mm
13:22 22 °C 11.1 °C 1015.1 hPa NW 3.7 km/h 3.7 km/h 50 % 0 mm
13:27 21.9 °C 11.3 °C 1015.1 hPa WNW 5.6 km/h 5.6 km/h 51 % 0 mm
13:32 21.8 °C 10.9 °C 1015.1 hPa NNW 1.9 km/h 1.9 km/h 50 % 0 mm
13:37 22.1 °C 10.8 °C 1015.1 hPa NW 5.6 km/h 5.6 km/h 49 % 0 mm
13:43 21.8 °C 10.9 °C 1014.8 hPa NW 3.7 km/h 3.7 km/h 50 % 0 mm
13:48 21.7 °C 10.2 °C 1014.8 hPa NW 3.7 km/h 3.7 km/h 48 % 0 mm
13:53 21.7 °C 10.5 °C 1014.4 hPa WNW 3.2 km/h 3.2 km/h 49 % 0 mm
13:58 21.8 °C 10.3 °C 1014.4 hPa NW 5.6 km/h 5.6 km/h 48 % 0 mm
14:03 21.7 °C 10.5 °C 1014.4 hPa WNW 1.9 km/h   49 % 0 mm
14:08 21.7 °C 10.5 °C 1014.4 hPa WNW 5.6 km/h 5.6 km/h 49 % 0 mm
14:13 21.8 °C 10.6 °C 1014.4 hPa SE 3.7 km/h 3.7 km/h 49 % 0 mm
14:16 21.9 °C 10.4 °C 1014.4 hPa WNW 5.6 km/h 5.6 km/h 48 % 0 mm
14:21 21.9 °C 10.7 °C 1014.1 hPa NW 3.7 km/h 3.7 km/h 49 % 0 mm
14:26 21.7 °C 10.6 °C 1014.1 hPa WSW 3.7 km/h 3.7 km/h 49 % 0 mm
14:31 21.6 °C 10.7 °C 1014.1 hPa NW 3.7 km/h 3.7 km/h 50 % 0 mm
14:36 21.4 °C 10.6 °C 1014.1 hPa NNW 3.2 km/h 3.2 km/h 50 % 0 mm
14:41 21.3 °C 10.7 °C 1014.1 hPa NNW 3.7 km/h 3.7 km/h 51 % 0 mm
14:46 21.2 °C 10.6 °C 1013.8 hPa NW 1.9 km/h 1.9 km/h 51 % 0 mm
14:51 21.2 °C 10.6 °C 1014.1 hPa West 3.7 km/h 3.7 km/h 51 % 0 mm
14:56 21.2 °C 10.6 °C 1014.1 hPa NW 3.7 km/h 3.7 km/h 51 % 0 mm
15:01 21.2 °C 10.6 °C 1014.1 hPa WNW 1.9 km/h   51 % 0 mm
15:06 21.3 °C 10.7 °C 1014.1 hPa NW 5.6 km/h 5.6 km/h 51 % 0 mm
15:11 21.3 °C 10.7 °C 1013.8 hPa NNE 3.2 km/h 3.2 km/h 51 % 0 mm
15:16 21.4 °C 10.8 °C 1013.8 hPa North 1.9 km/h 1.9 km/h 51 % 0 mm
15:21 21.4 °C 11.1 °C 1013.8 hPa WNW 1.9 km/h 1.9 km/h 52 % 0 mm
15:26 21.3 °C 10.7 °C 1013.8 hPa NW 1.9 km/h 1.9 km/h 51 % 0 mm
15:31 21.2 °C 10.9 °C 1013.8 hPa WNW 3.7 km/h   52 % 0 mm
15:36 21.2 °C 10.9 °C 1013.8 hPa SW 1.9 km/h   52 % 0 mm
15:42 21.2 °C 10.4 °C 1013.8 hPa WNW 3.7 km/h 3.7 km/h 50 % 0 mm
15:47 21.1 °C 10.3 °C 1013.8 hPa Calm     50 % 0 mm
15:52 21.2 °C 10.6 °C 1013.8 hPa Calm     51 % 0 mm
15:57 21.1 °C 10.6 °C 1013.8 hPa West 3.7 km/h 3.7 km/h 51 % 0 mm
16:02 21.1 °C 10.5 °C 1013.8 hPa Calm     51 % 0 mm
16:07 21.1 °C 10.2 °C 1013.8 hPa Calm     50 % 0 mm
16:12 21.1 °C 9.9 °C 1013.8 hPa Calm     49 % 0 mm
16:17 21 °C 10.2 °C 1013.8 hPa NW 1.9 km/h 1.9 km/h 50 % 0 mm
16:22 20.9 °C 10.4 °C 1014.1 hPa NNW 1.9 km/h   51 % 0 mm
16:27 20.8 °C 10.3 °C 1014.1 hPa Calm     51 % 0 mm
16:32 20.8 °C 9.9 °C 1014.1 hPa WSW 3.7 km/h 3.7 km/h 50 % 0 mm
16:37 20.8 °C 10.3 °C 1013.8 hPa Calm     51 % 0 mm
16:42 20.8 °C 10.8 °C 1013.8 hPa Calm     53 % 0 mm
16:47 20.7 °C 10.5 °C 1013.8 hPa Calm     52 % 0 mm
16:52 20.7 °C 11 °C 1014.1 hPa Calm     54 % 0 mm
16:57 20.6 °C 10.9 °C 1014.1 hPa WNW 3.7 km/h 3.7 km/h 54 % 0 mm
17:02 20.5 °C 11.4 °C 1014.1 hPa Calm     56 % 0 mm
17:07 20.5 °C 11.7 °C 1013.8 hPa WNW 1.9 km/h   57 % 0 mm
17:12 20.4 °C 11.1 °C 1013.8 hPa Calm     55 % 0 mm
17:17 20.4 °C 11.1 °C 1013.8 hPa WNW 1.6 km/h 1.6 km/h 55 % 0 mm
17:22 20.3 °C 10.9 °C 1014.1 hPa NNW 3.7 km/h 3.7 km/h 55 % 0 mm
17:27 20.1 °C 11.1 °C 1014.1 hPa Calm     56 % 0 mm
17:32 20 °C 11.2 °C 1014.1 hPa WNW 1.9 km/h 1.9 km/h 57 % 0 mm
17:37 19.8 °C 10.8 °C 1014.1 hPa NW 3.7 km/h 3.7 km/h 56 % 0 mm
17:42 19.7 °C 10.9 °C 1014.1 hPa WNW 3.2 km/h 3.2 km/h 57 % 0 mm
17:47 19.7 °C 10.9 °C 1014.1 hPa NW 1.9 km/h 1.9 km/h 57 % 0 mm
17:52 19.6 °C 11.1 °C 1014.1 hPa NW 3.7 km/h 3.7 km/h 58 % 0 mm
17:57 19.3 °C 11.9 °C 1014.4 hPa WNW 1.6 km/h 1.6 km/h 62 % 0 mm
18:02 19.1 °C 12.1 °C 1014.4 hPa Calm     64 % 0 mm
18:07 18.7 °C 12.2 °C 1014.4 hPa Calm     66 % 0 mm
18:12 18.3 °C 12.6 °C 1014.4 hPa WNW 1.9 km/h   69 % 0 mm
18:17 18.1 °C 12.6 °C 1014.4 hPa Calm     70 % 0 mm
18:22 17.9 °C 12.4 °C 1014.4 hPa Calm     70 % 0 mm
18:27 17.9 °C 12.6 °C 1014.1 hPa Calm     71 % 0 mm
18:32 17.9 °C 12.6 °C 1014.4 hPa Calm   0.2 km/h 71 % 0 mm
18:37 17.9 °C 12.6 °C 1014.4 hPa Calm     71 % 0 mm
18:42 17.8 °C 12.5 °C 1014.4 hPa Calm     71 % 0 mm
18:47 17.8 °C 12.4 °C 1014.4 hPa Calm     71 % 0 mm
18:48 17.8 °C 12.4 °C 1014.4 hPa Calm     71 % 0 mm
18:53 17.8 °C 12.5 °C 1014.4 hPa WNW 1.6 km/h   71 % 0 mm
18:58 17.9 °C 12.1 °C 1014.4 hPa NW 1.9 km/h 1.9 km/h 69 % 0 mm
19:08 17.9 °C 12.1 °C 1014.4 hPa NNW 1.9 km/h 1.9 km/h 69 % 0 mm
19:13 17.8 °C 12 °C 1014.4 hPa NNW 1.9 km/h 1.9 km/h 69 % 0 mm
19:18 17.7 °C 11.9 °C 1014.4 hPa Calm     69 % 0 mm
19:23 17.6 °C 11.8 °C 1014.4 hPa Calm     69 % 0 mm
19:28 17.6 °C 12.1 °C 1014.4 hPa Calm     70 % 0 mm
19:33 17.5 °C 11.9 °C 1014.8 hPa Calm     70 % 0 mm
19:38 17.5 °C 11.9 °C 1014.4 hPa Calm     70 % 0 mm
19:43 17.4 °C 11.9 °C 1014.4 hPa Calm     70 % 0 mm
19:48 17.3 °C 12 °C 1014.4 hPa Calm     71 % 0 mm
19:53 17.2 °C 11.9 °C 1014.4 hPa Calm     71 % 0 mm
19:58 17.1 °C 12 °C 1014.4 hPa Calm     72 % 0 mm
20:03 17 °C 11.9 °C 1014.4 hPa Calm     72 % 0 mm
20:09 16.9 °C 12 °C 1014.4 hPa Calm     73 % 0 mm
20:14 16.8 °C 11.9 °C 1014.4 hPa Calm     73 % 0 mm
20:19 16.7 °C 11.8 °C 1014.4 hPa Calm     73 % 0 mm
20:21 16.7 °C 12 °C 1014.4 hPa Calm     74 % 0 mm
20:23 16.6 °C 11.7 °C 1014.4 hPa Calm     73 % 0 mm
20:26 16.6 °C 11.9 °C 1014.4 hPa NW 1.9 km/h 1.9 km/h 74 % 0 mm
20:29 16.6 °C 11.9 °C 1014.4 hPa Calm     74 % 0 mm
20:32 16.6 °C 11.9 °C 1014.4 hPa NW 1.9 km/h   74 % 0 mm
20:37 16.5 °C 11.7 °C 1014.8 hPa Calm     73 % 0 mm
20:42 16.5 °C 11.7 °C 1014.8 hPa Calm     73 % 0 mm
20:47 16.5 °C 11.7 °C 1014.8 hPa Calm     73 % 0 mm
20:52 16.4 °C 11.6 °C 1014.8 hPa Calm     73 % 0 mm
20:57 16.4 °C 11.8 °C 1014.8 hPa Calm     74 % 0 mm
21:02 16.4 °C 11.8 °C 1014.8 hPa Calm     74 % 0 mm
21:07 16.4 °C 11.6 °C 1014.8 hPa Calm     73 % 0 mm
21:12 16.3 °C 11.9 °C 1014.8 hPa Calm     75 % 0 mm
21:17 16.2 °C 11.9 °C 1015.1 hPa Calm     76 % 0 mm
21:22 15.9 °C 12.1 °C 1015.1 hPa Calm     78 % 0 mm
21:27 15.7 °C 12.1 °C 1015.1 hPa Calm     79 % 0 mm
21:32 15.6 °C 12 °C 1015.1 hPa Calm     79 % 0 mm
21:37 15.5 °C 12.1 °C 1015.1 hPa Calm     80 % 0 mm
21:42 15.6 °C 12.1 °C 1015.1 hPa Calm     80 % 0 mm
21:47 15.6 °C 12.3 °C 1015.5 hPa Calm     81 % 0 mm
21:52 15.5 °C 12.3 °C 1015.5 hPa Calm     81 % 0 mm
21:57 15.4 °C 12.3 °C 1015.5 hPa Calm     82 % 0 mm
22:02 15.3 °C 12.2 °C 1015.5 hPa Calm     82 % 0 mm
22:07 15.3 °C 12.1 °C 1015.5 hPa Calm     81 % 0 mm
22:12 15.3 °C 12.1 °C 1015.8 hPa Calm     81 % 0 mm
22:17 15.2 °C 12.1 °C 1015.8 hPa Calm     82 % 0 mm
22:22 15.1 °C 12.1 °C 1015.5 hPa Calm     82 % 0 mm
22:27 15.1 °C 12.2 °C 1015.5 hPa Calm     83 % 0 mm
22:32 15 °C 12.1 °C 1015.5 hPa Calm     83 % 0 mm
22:37 14.9 °C 12.1 °C 1015.5 hPa Calm     83 % 0 mm
22:42 14.9 °C 11.7 °C 1015.5 hPa Calm     81 % 0 mm
22:47 14.9 °C 11.9 °C 1015.5 hPa Calm     82 % 0 mm
22:57 14.7 °C 11.8 °C 1015.5 hPa Calm     83 % 0 mm
23:02 14.4 °C 11.6 °C 1015.5 hPa Calm     83 % 0 mm
23:07 14.3 °C 11.7 °C 1015.5 hPa Calm     84 % 0 mm
23:12 14.4 °C 11.6 °C 1015.5 hPa Calm     83 % 0 mm
23:17 14.4 °C 11.4 °C 1015.5 hPa Calm     82 % 0 mm
23:22 14.4 °C 11.4 °C 1015.5 hPa Calm     82 % 0 mm
23:27 14.5 °C 11.4 °C 1015.5 hPa Calm     82 % 0 mm
23:33 14.4 °C 11.4 °C 1015.8 hPa Calm     82 % 0 mm
23:38 14.4 °C 11.3 °C 1015.8 hPa Calm     82 % 0 mm
23:43 14.3 °C 11.3 °C 1015.8 hPa Calm     82 % 0 mm
23:48 14.2 °C 11.2 °C 1015.8 hPa Calm     82 % 0 mm
23:53 13.9 °C 11.1 °C 1015.8 hPa Calm     83 % 0 mm
23:58 13.8 °C 11.1 °C 1015.8 hPa Calm     84 % 0 mm
Park Place, Exeter, Tulare County, California, USA
Compliments of Weather Underground - 2.75 mb